Time;durP1;ratioP1;P1;durP2;ratioP2;P2;SDS_P1;SDS_P2;PMS_P1;PMS_P2;Temp;Humidity;BMP_temperature;BMP_pressure;BME280_temperature;BME280_humidity;BME280_pressure;Samples;Min_cycle;Max_cycle;Signal;HPM_P1;HPM_P2
2022/05/08 00:00:26;;;;;;;;;;;;;;;;;;2586844;23;20401;-81
2022/05/08 00:01:26;;;;;;;5.15;2.95;;;;;;;;;;2586648;23;19904;-81
2022/05/08 00:02:27;;;;;;;;;;;;;;;;;;2587484;23;20399;-80
2022/05/08 00:03:27;;;;;;;3.07;2.70;;;;;;;;;;2569228;23;19904;-81
2022/05/08 00:04:27;;;;;;;;;;;;;;;;;;2569945;23;20024;-80
2022/05/08 00:05:30;;;;;;;4.97;3.40;;;;;;;;;;2569318;23;19908;-80
2022/05/08 00:06:34;;;;;;;3.38;3.00;;;;;;;;;;2574001;23;20008;-81
2022/05/08 00:07:34;;;;;;;4.10;2.83;;;;;;;;;;2586578;23;20331;-80
2022/05/08 00:08:35;;;;;;;;;;;;;;;;;;2582531;23;20004;-81
2022/05/08 00:09:38;;;;;;;3.73;2.60;;;;;;;;;;2581891;23;20004;-81
2022/05/08 00:10:40;;;;;;;4.88;2.70;;;;;;;;;;2586387;23;20406;-81
2022/05/08 00:11:40;;;;;;;5.40;2.88;;;;;;;;;;2569069;23;20000;-81
2022/05/08 00:12:41;;;;;;;;;;;;;;;;;;2574228;23;20356;-81
2022/05/08 00:13:47;;;;;;;3.97;2.87;;;;;;;;;;2569367;23;20018;-81
2022/05/08 00:14:52;;;;;;;3.92;3.05;;;;;;;;;;2574915;23;20303;-81
2022/05/08 00:16:00;;;;;;;3.30;3.00;;;;;;;;;;2581730;23;20422;-80
2022/05/08 00:17:01;;;;;;;3.92;2.85;;;;;;;;;;2586221;23;19992;-80
2022/05/08 00:18:01;;;;;;;;;;;;;;;;;;2587253;23;20446;-81
2022/05/08 00:19:04;;;;;;;4.50;3.27;;;;;;;;;;2569364;23;19966;-81
2022/05/08 00:20:07;;;;;;;4.43;3.45;;;;;;;;;;2573965;23;20085;-81
2022/05/08 00:21:08;;;;;;;7.38;3.70;;;;;;;;;;2586624;23;19992;-81
2022/05/08 00:22:09;;;;;;;;;;;;;;;;;;2582345;23;20008;-81
2022/05/08 00:23:14;;;;;;;4.23;3.13;;;;;;;;;;2586130;23;19981;-81
2022/05/08 00:24:17;;;;;;;5.13;3.35;;;;;;;;;;2586850;23;19996;-81
2022/05/08 00:25:17;;;;;;;6.15;3.08;;;;;;;;;;2569235;23;20089;-80
2022/05/08 00:26:18;;;;;;;;;;;;;;;;;;2557360;23;20001;-80
2022/05/08 00:27:19;;;;;;;3.43;3.13;;;;;;;;;;2573608;23;20338;-80
2022/05/08 00:28:19;;;;;;;;;;;;;;;;;;2587177;23;20226;-80
2022/05/08 00:29:19;;;;;;;5.03;3.50;;;;;;;;;;2581830;23;19930;-81
2022/05/08 00:30:25;;;;;;;9.98;4.10;;;;;;;;;;2585849;23;20044;-80
2022/05/08 00:31:46;;;;;;;5.88;3.25;;;;;;;;;;2569172;23;20020;-80
2022/05/08 00:32:51;;;;;;;7.82;3.63;;;;;;;;;;2577854;23;19997;-80
2022/05/08 00:33:54;;;;;;;6.00;3.30;;;;;;;;;;2581675;23;19996;-81
2022/05/08 00:34:57;;;;;;;6.18;3.58;;;;;;;;;;2586182;23;19992;-81
2022/05/08 00:36:02;;;;;;;4.93;3.38;;;;;;;;;;2586472;23;20122;-81
2022/05/08 00:37:13;;;;;;;5.82;3.17;;;;;;;;;;2586769;23;20061;-81
2022/05/08 00:38:23;;;;;;;4.20;3.05;;;;;;;;;;2586421;23;20024;-81
2022/05/08 00:39:35;;;;;;;6.45;3.58;;;;;;;;;;2581866;23;19996;-81
2022/05/08 00:40:38;;;;;;;8.07;3.53;;;;;;;;;;2586269;23;20000;-81
2022/05/08 00:41:38;;;;;;;6.13;3.13;;;;;;;;;;2581708;23;20023;-80
2022/05/08 00:42:39;;;;;;;;;;;;;;;;;;2586634;23;20003;-80
2022/05/08 00:43:44;;;;;;;5.07;3.87;;;;;;;;;;2581707;23;20337;-80
2022/05/08 00:44:47;;;;;;;4.80;3.67;;;;;;;;;;2569319;23;20079;-80
2022/05/08 00:45:47;;;;;;;6.85;3.38;;;;;;;;;;2569869;23;20071;-80
2022/05/08 00:46:48;;;;;;;;;;;;;;;;;;2586652;23;20316;-80
2022/05/08 00:47:54;;;;;;;7.93;3.35;;;;;;;;;;2569362;23;19907;-80
2022/05/08 00:48:54;;;;;;;4.22;3.50;;;;;;;;;;2574381;23;20059;-81
2022/05/08 00:49:54;;;;;;;;;;;;;;;;;;2587193;23;19992;-81
2022/05/08 00:50:55;;;;;;;4.03;3.23;;;;;;;;;;2581581;23;20366;-80
2022/05/08 00:51:56;;;;;;;;;;;;;;;;;;2586722;23;19988;-81
2022/05/08 00:52:59;;;;;;;5.80;3.87;;;;;;;;;;2581896;23;19938;-81
2022/05/08 00:54:02;;;;;;;6.95;4.07;;;;;;;;;;2585883;23;19996;-80
2022/05/08 00:55:04;;;;;;;5.00;3.72;;;;;;;;;;2569175;23;19996;-80
2022/05/08 00:56:07;;;;;;;5.10;3.22;;;;;;;;;;2573853;23;20035;-80
2022/05/08 00:57:09;;;;;;;4.35;3.10;;;;;;;;;;2586725;23;19991;-81
2022/05/08 00:58:11;;;;;;;4.60;3.55;;;;;;;;;;2581719;23;20419;-80
2022/05/08 00:59:11;;;;;;;5.28;3.50;;;;;;;;;;2581584;23;20160;-81
2022/05/08 01:00:12;;;;;;;;;;;;;;;;;;2573948;23;19992;-81
2022/05/08 01:01:15;;;;;;;4.50;3.27;;;;;;;;;;2586623;23;20219;-81
2022/05/08 01:02:17;;;;;;;6.10;4.13;;;;;;;;;;2582506;23;20103;-80
2022/05/08 01:03:17;;;;;;;4.80;3.03;;;;;;;;;;2581883;23;20032;-80
2022/05/08 01:04:18;;;;;;;;;;;;;;;;;;2586614;23;20000;-80
2022/05/08 01:05:21;;;;;;;9.23;3.87;;;;;;;;;;2581811;23;19918;-80
2022/05/08 01:06:22;;;;;;;4.18;3.22;;;;;;;;;;2586065;23;20039;-80
2022/05/08 01:07:25;;;;;;;5.20;3.55;;;;;;;;;;2586527;23;20085;-81
2022/05/08 01:08:26;;;;;;;4.43;3.10;;;;;;;;;;2586573;23;20002;-81
2022/05/08 01:09:29;;;;;;;;;;;;;;;;;;2569731;23;20247;-81
2022/05/08 01:10:32;;;;;;;4.68;3.40;;;;;;;;;;2573904;23;19903;-81
2022/05/08 01:11:32;;;;;;;5.22;3.17;;;;;;;;;;2586599;23;19992;-81
2022/05/08 01:12:32;;;;;;;;;;;;;;;;;;2587022;23;20091;-81
2022/05/08 01:13:33;;;;;;;7.88;3.50;;;;;;;;;;2586501;23;19915;-81
2022/05/08 01:14:42;;;;;;;;;;;;;;;;;;2569684;23;20000;-80
2022/05/08 01:15:45;;;;;;;5.97;3.63;;;;;;;;;;2575235;23;19955;-80
2022/05/08 01:16:46;;;;;;;5.60;3.25;;;;;;;;;;2569057;23;20074;-81
2022/05/08 01:17:52;;;;;;;;;;;;;;;;;;2569758;23;20411;-81
2022/05/08 01:18:55;;;;;;;8.52;4.45;;;;;;;;;;2574543;23;19908;-80
2022/05/08 01:19:55;;;;;;;4.28;3.42;;;;;;;;;;2569287;23;20281;-80
2022/05/08 01:20:56;;;;;;;;;;;;;;;;;;2573818;23;19995;-81
2022/05/08 01:21:56;;;;;;;5.32;3.47;;;;;;;;;;2581665;23;19960;-81
2022/05/08 01:22:56;;;;;;;;;;;;;;;;;;2569833;23;20039;-80
2022/05/08 01:23:57;;;;;;;6.30;4.32;;;;;;;;;;2573281;23;20283;-80
2022/05/08 01:25:01;;;;;;;5.25;3.20;;;;;;;;;;2586501;23;20059;-80
2022/05/08 01:26:04;;;;;;;5.30;3.42;;;;;;;;;;2586370;23;20015;-81
2022/05/08 01:27:07;;;;;;;5.80;4.00;;;;;;;;;;2569250;23;19988;-81
2022/05/08 01:28:07;;;;;;;3.92;3.22;;;;;;;;;;2573928;23;19996;-81
2022/05/08 01:29:08;;;;;;;;;;;;;;;;;;2586973;23;20436;-81
2022/05/08 01:30:09;;;;;;;4.55;3.17;;;;;;;;;;2586475;23;19915;-81
2022/05/08 01:31:11;;;;;;;;;;;;;;;;;;2586998;23;20077;-81
2022/05/08 01:32:15;;;;;;;5.05;3.47;;;;;;;;;;2586386;23;19904;-81
2022/05/08 01:33:18;;;;;;;4.10;3.65;;;;;;;;;;2568834;23;20059;-80
2022/05/08 01:34:19;;;;;;;8.27;3.40;;;;;;;;;;2573733;23;20004;-81
2022/05/08 01:35:19;;;;;;;;;;;;;;;;;;2586904;23;20411;-81
2022/05/08 01:36:20;;;;;;;7.22;3.33;;;;;;;;;;2586317;23;19910;-81
2022/05/08 01:37:20;;;;;;;;;;;;;;;;;;2586960;23;20063;-80
2022/05/08 01:38:23;;;;;;;5.60;3.07;;;;;;;;;;2581799;23;19910;-81
2022/05/08 01:39:31;;;;;;;5.30;3.60;;;;;;;;;;2586028;23;20061;-81
2022/05/08 01:40:36;;;;;;;4.90;3.45;;;;;;;;;;2586524;23;20304;-81
2022/05/08 01:41:39;;;;;;;7.47;3.72;;;;;;;;;;2568935;23;20008;-81
2022/05/08 01:42:48;;;;;;;4.47;3.08;;;;;;;;;;2574015;23;20000;-80
2022/05/08 01:43:51;;;;;;;4.25;3.08;;;;;;;;;;2586413;23;20000;-80
2022/05/08 01:44:54;;;;;;;7.88;3.30;;;;;;;;;;2569021;23;20004;-81
2022/05/08 01:45:57;;;;;;;7.18;3.53;;;;;;;;;;2573813;23;20012;-80
2022/05/08 01:48:23;;;;;;;4.50;2.95;;;;;;;;;;2586398;23;20417;-80
2022/05/08 01:49:32;;;;;;;5.50;3.22;;;;;;;;;;2586384;23;20066;-80
2022/05/08 01:50:35;;;;;;;8.68;3.05;;;;;;;;;;2585718;23;20004;-80
2022/05/08 01:51:38;;;;;;;9.43;3.75;;;;;;;;;;2585803;23;20062;-81
2022/05/08 01:52:39;;;;;;;5.57;3.67;;;;;;;;;;2586314;23;19996;-81
2022/05/08 01:53:39;;;;;;;;;;;;;;;;;;2586869;23;19996;-80
2022/05/08 01:54:43;;;;;;;4.53;3.10;;;;;;;;;;2568930;23;19919;-80
2022/05/08 01:55:47;;;;;;;6.60;3.40;;;;;;;;;;2557296;23;20404;-79
2022/05/08 01:56:49;;;;;;;7.32;3.38;;;;;;;;;;2573721;23;20486;-81
2022/05/08 01:57:55;;;;;;;5.22;3.20;;;;;;;;;;2581691;23;19996;-80
2022/05/08 01:58:56;;;;;;;5.13;3.38;;;;;;;;;;2585845;23;19992;-80
2022/05/08 01:59:56;;;;;;;;;;;;;;;;;;2587222;23;20265;-79
2022/05/08 02:01:01;;;;;;;;;;;;;;;;;;2586879;23;19998;-79
2022/05/08 02:02:01;;;;;;;;;;;;;;;;;;2586978;23;19903;-80
2022/05/08 02:03:04;;;;;;;;;;;;;;;;;;2586894;23;19908;-80
2022/05/08 02:04:12;;;;;;;;;;;;;;;;;;2586959;23;19907;-80
2022/05/08 02:05:15;;;;;;;;;;;;;;;;;;2586900;23;20298;-80
2022/05/08 02:06:16;;;;;;;;;;;;;;;;;;2586902;23;19914;-79
2022/05/08 02:07:17;;;;;;;;;;;;;;;;;;2569578;23;19982;-79
2022/05/08 02:09:38;;;;;;;;;;;;;;;;;;2570008;23;19908;-80
2022/05/08 02:10:39;;;;;;;;;;;;;;;;;;2574369;23;20340;-80
2022/05/08 02:11:39;;;;;;;;;;;;;;;;;;2569786;23;20389;-80
2022/05/08 02:12:40;;;;;;;;;;;;;;;;;;2574314;23;19925;-80
2022/05/08 02:13:40;;;;;;;;;;;;;;;;;;2570084;23;19904;-80
2022/05/08 02:14:45;;;;;;;;;;;;;;;;;;2569887;23;19908;-79
2022/05/08 02:15:58;;;;;;;;;;;;;;;;;;2558140;23;19915;-79
2022/05/08 02:17:05;;;;;;;;;;;;;;;;;;2573804;23;20218;-79
2022/05/08 02:18:09;;;;;;;;;;;;;;;;;;2573887;23;20399;-79
2022/05/08 02:19:09;;;;;;;;;;;;;;;;;;2569652;23;19904;-79
2022/05/08 02:20:12;;;;;;;;;;;;;;;;;;2569537;23;19911;-79
2022/05/08 02:21:17;;;;;;;;;;;;;;;;;;2573668;23;19915;-78
2022/05/08 02:22:17;;;;;;;;;;;;;;;;;;2569531;23;19934;-80
2022/05/08 02:23:18;;;;;;;;;;;;;;;;;;2573767;23;19908;-80
2022/05/08 02:24:18;;;;;;;;;;;;;;;;;;2574510;23;19908;-80
2022/05/08 02:25:20;;;;;;;;;;;;;;;;;;2574390;23;19907;-79
2022/05/08 02:26:23;;;;;;;;;;;;;;;;;;2569833;23;19950;-80
2022/05/08 02:27:26;;;;;;;;;;;;;;;;;;2573896;23;19982;-80
2022/05/08 02:28:26;;;;;;;;;;;;;;;;;;2569750;23;20191;-80
2022/05/08 02:29:27;;;;;;;;;;;;;;;;;;2569550;23;19903;-80
2022/05/08 02:30:27;;;;;;;;;;;;;;;;;;2557061;23;20256;-80
2022/05/08 02:31:30;;;;;;;;;;;;;;;;;;2561262;23;19903;-79
2022/05/08 02:32:37;;;;;;;;;;;;;;;;;;2557193;23;20216;-80
2022/05/08 02:33:38;;;;;;;;;;;;;;;;;;2561288;23;20036;-81
2022/05/08 02:34:38;;;;;;;;;;;;;;;;;;2561450;23;20336;-79
2022/05/08 02:35:40;;;;;;;;;;;;;;;;;;2569440;23;19977;-78
2022/05/08 02:36:41;;;;;;;;;;;;;;;;;;2569972;23;20315;-80
2022/05/08 02:37:41;;;;;;;;;;;;;;;;;;2569154;23;19994;-80
2022/05/08 02:38:41;;;;;;;;;;;;;;;;;;2569610;23;19903;-81
2022/05/08 02:39:44;;;;;;;;;;;;;;;;;;2573714;23;19939;-81
2022/05/08 02:40:44;;;;;;;;;;;;;;;;;;2574226;23;19911;-81
2022/05/08 02:41:45;;;;;;;;;;;;;;;;;;2569554;23;19935;-81
2022/05/08 02:42:46;;;;;;;;;;;;;;;;;;2557013;23;19904;-80
2022/05/08 02:43:55;;;;;;;;;;;;;;;;;;2557141;23;20090;-81
2022/05/08 02:44:58;;;;;;;;;;;;;;;;;;2573849;23;19915;-80
2022/05/08 02:46:00;;;;;;;;;;;;;;;;;;2569937;23;20206;-80
2022/05/08 02:47:01;;;;;;;;;;;;;;;;;;2574181;23;20286;-80
2022/05/08 02:48:04;;;;;;;;;;;;;;;;;;2557544;23;19904;-80
2022/05/08 02:49:04;;;;;;;;;;;;;;;;;;2558162;23;19962;-80
2022/05/08 02:50:14;;;;;;;;;;;;;;;;;;2574269;23;20304;-80
2022/05/08 02:51:17;;;;;;;;;;;;;;;;;;2572978;23;19922;-81
2022/05/08 02:52:18;;;;;;;;;;;;;;;;;;2570311;23;19973;-81
2022/05/08 02:53:20;;;;;;;;;;;;;;;;;;2569706;23;20311;-80
2022/05/08 02:54:23;;;;;;;;;;;;;;;;;;2561657;23;20146;-80
2022/05/08 02:59:20;;;;;;;;;;;;;;;;;;2574853;23;19903;-80
2022/05/08 03:00:20;;;;;;;;;;;;;;;;;;2575006;23;20157;-81
2022/05/08 03:01:20;;;;;;;;;;;;;;;;;;2570107;23;20334;-81
2022/05/08 03:02:21;;;;;;;;;;;;;;;;;;2574274;23;19965;-81
2022/05/08 03:03:21;;;;;;;;;;;;;;;;;;2557504;23;19904;-81
2022/05/08 03:04:21;;;;;;;;;;;;;;;;;;2561822;23;19916;-81
2022/05/08 03:05:27;;;;;;;;;;;;;;;;;;2558020;23;19904;-80
2022/05/08 03:06:27;;;;;;;;;;;;;;;;;;2563553;23;20224;-80
2022/05/08 03:07:29;;;;;;;;;;;;;;;;;;2559395;23;19907;-80
2022/05/08 03:08:32;;;;;;;;;;;;;;;;;;2575025;23;19912;-80
2022/05/08 03:09:32;;;;;;;;;;;;;;;;;;2587188;23;19903;-80
2022/05/08 03:11:58;;;;;;;;;;;;;;;;;;2587578;23;19915;-79
2022/05/08 03:12:59;;;;;;;;;;;;;;;;;;2581562;23;20362;-79
2022/05/08 03:13:59;;;;;;;;;;;;;;;;;;2586824;23;19998;-79
2022/05/08 03:14:59;;;;;;;;;;;;;;;;;;2569982;23;19943;-79
2022/05/08 03:16:00;;;;;;;;;;;;;;;;;;2574343;23;19903;-81
2022/05/08 03:17:00;;;;;;;;;;;;;;;;;;2587258;23;19911;-80
2022/05/08 03:18:00;;;;;;;;;;;;;;;;;;2582595;23;19907;-80
2022/05/08 03:19:01;;;;;;;;;;;;;;;;;;2586926;23;20293;-79
2022/05/08 03:20:02;;;;;;;;;;;;;;;;;;2570121;23;19904;-79
2022/05/08 03:21:02;;;;;;;;;;;;;;;;;;2574292;23;19911;-80
2022/05/08 03:22:02;;;;;;;;;;;;;;;;;;2570046;23;20174;-80
2022/05/08 03:23:03;;;;;;;;;;;;;;;;;;2569996;23;19915;-80
2022/05/08 03:24:03;;;;;;;;;;;;;;;;;;2570107;23;20231;-80
2022/05/08 03:25:07;;;;;;;;;;;;;;;;;;2574332;23;19903;-80
2022/05/08 03:26:08;;;;;;;;;;;;;;;;;;2587334;23;19994;-80
2022/05/08 03:27:08;;;;;;;;;;;;;;;;;;2570089;23;20258;-80
2022/05/08 03:28:16;;;;;;;;;;;;;;;;;;2569969;23;19908;-80
2022/05/08 03:29:19;;;;;;;;;;;;;;;;;;2574411;23;19904;-80
2022/05/08 03:30:20;;;;;;;;;;;;;;;;;;2569812;23;19904;-80
2022/05/08 03:31:21;;;;;;;;;;;;;;;;;;2574338;23;19914;-80
2022/05/08 03:32:21;;;;;;;;;;;;;;;;;;2582564;23;19923;-80
2022/05/08 03:33:24;;;;;;;;;;;;;;;;;;2582456;23;19903;-80
2022/05/08 03:34:27;;;;;;;;;;;;;;;;;;2574715;23;19908;-80
2022/05/08 03:35:27;;;;;;;;;;;;;;;;;;2582700;23;19907;-80
2022/05/08 03:36:28;;;;;;;;;;;;;;;;;;2582533;23;19904;-80
2022/05/08 03:37:28;;;;;;;;;;;;;;;;;;2574498;23;19971;-80
2022/05/08 03:38:28;;;;;;;;;;;;;;;;;;2587306;23;20242;-79
2022/05/08 03:39:31;;;;;;;;;;;;;;;;;;2569901;23;19908;-79
2022/05/08 03:40:32;;;;;;;;;;;;;;;;;;2574631;23;19935;-80
2022/05/08 03:41:33;;;;;;;;;;;;;;;;;;2570098;23;19918;-80
2022/05/08 03:42:33;;;;;;;;;;;;;;;;;;2574052;23;20223;-81
2022/05/08 03:43:34;;;;;;;;;;;;;;;;;;2569823;23;20334;-80
2022/05/08 03:44:35;;;;;;;;;;;;;;;;;;2570006;23;20009;-80
2022/05/08 03:45:36;;;;;;;;;;;;;;;;;;2569927;23;19914;-81
2022/05/08 03:46:36;;;;;;;;;;;;;;;;;;2586808;23;20062;-80
2022/05/08 03:47:36;;;;;;;;;;;;;;;;;;2583852;23;19915;-81
2022/05/08 03:48:37;;;;;;;;;;;;;;;;;;2587522;23;19911;-81
2022/05/08 03:49:37;;;;;;;;;;;;;;;;;;2582319;23;19910;-80
2022/05/08 03:50:37;;;;;;;;;;;;;;;;;;2586917;23;19904;-81
2022/05/08 03:51:37;;;;;;;;;;;;;;;;;;2569784;23;19962;-80
2022/05/08 03:52:38;;;;;;;;;;;;;;;;;;2582467;23;19907;-80
2022/05/08 03:53:38;;;;;;;;;;;;;;;;;;2586852;23;19979;-80
2022/05/08 03:54:38;;;;;;;;;;;;;;;;;;2587294;23;20325;-80
2022/05/08 03:55:39;;;;;;;;;;;;;;;;;;2587213;23;19904;-81
2022/05/08 03:56:39;;;;;;;;;;;;;;;;;;2582356;23;19942;-81
2022/05/08 03:57:39;;;;;;;;;;;;;;;;;;2586847;23;20330;-80
2022/05/08 03:58:42;;;;;;;;;;;;;;;;;;2569939;23;20014;-80
2022/05/08 03:59:48;;;;;;;;;;;;;;;;;;2569382;23;19904;-80
2022/05/08 04:00:51;;;;;;;;;;;;;;;;;;2575191;23;19962;-80
2022/05/08 04:01:54;;;;;;;;;;;;;;;;;;2587384;23;19961;-80
2022/05/08 04:02:55;;;;;;;;;;;;;;;;;;2582491;23;19903;-81
2022/05/08 04:04:03;;;;;;;;;;;;;;;;;;2582924;23;19914;-80
2022/05/08 04:05:04;;;;;;;;;;;;;;;;;;2575528;23;19908;-80
2022/05/08 04:06:04;;;;;;;;;;;;;;;;;;2587335;23;19918;-80
2022/05/08 04:07:04;;;;;;;;;;;;;;;;;;2587237;23;20254;-80
2022/05/08 04:08:05;;;;;;;;;;;;;;;;;;2587353;23;19908;-80
2022/05/08 04:09:05;;;;;;;;;;;;;;;;;;2587326;23;19929;-80
2022/05/08 04:10:07;;;;;;;;;;;;;;;;;;2587422;23;19904;-80
2022/05/08 04:11:07;;;;;;;;;;;;;;;;;;2587079;23;19914;-80
2022/05/08 04:12:08;;;;;;;;;;;;;;;;;;2587288;23;20093;-80
2022/05/08 04:13:08;;;;;;;;;;;;;;;;;;2570018;23;19954;-80
2022/05/08 04:14:08;;;;;;;;;;;;;;;;;;2569825;23;20303;-80
2022/05/08 04:16:37;;;;;;;;;;;;;;;;;;2587246;23;19903;-80
2022/05/08 04:17:38;;;;;;;;;;;;;;;;;;2587323;23;20095;-80
2022/05/08 04:18:51;;;;;;;;;;;;;;;;;;2582380;23;19919;-80
2022/05/08 04:19:51;;;;;;;;;;;;;;;;;;2586765;23;19903;-80
2022/05/08 04:21:12;;;;;;;;;;;;;;;;;;2587307;23;20374;-81
2022/05/08 04:24:52;;;;;;;;;;;;;;;;;;2587173;23;19903;-80
2022/05/08 04:25:58;;;;;;;;;;;;;;;;;;2582513;23;19985;-79
2022/05/08 04:27:11;;;;;;;;;;;;;;;;;;2586219;23;20338;-80
2022/05/08 04:28:22;;;;;;;;;;;;;;;;;;2577130;23;19904;-80
2022/05/08 04:29:24;;;;;;;;;;;;;;;;;;2587414;23;19914;-80
2022/05/08 04:30:27;;;;;;;;;;;;;;;;;;2587211;23;20242;-80
2022/05/08 04:31:30;;;;;;;;;;;;;;;;;;2586956;23;19911;-78
2022/05/08 04:32:39;;;;;;;;;;;;;;;;;;2587319;23;19982;-80
2022/05/08 04:33:52;;;;;;;;;;;;;;;;;;;;;
2022/05/08 04:34:55;;;;;;;;;;;;;;;;;;2587347;23;19961;-81
2022/05/08 04:35:58;;;;;;;;;;;;;;;;;;2582471;23;20267;-80
2022/05/08 04:37:01;;;;;;;;;;;;;;;;;;2586473;23;20311;-81
2022/05/08 04:38:12;;;;;;;;;;;;;;;;;;2587450;23;19983;-79
2022/05/08 04:39:15;;;;;;;;;;;;;;;;;;2586433;23;19903;-79
2022/05/08 04:40:15;;;;;;;;;;;;;;;;;;2587091;23;20345;-80
2022/05/08 04:41:19;;;;;;;;;;;;;;;;;;2587476;23;19907;-80
2022/05/08 04:42:19;;;;;;;;;;;;;;;;;;2569752;23;20239;-80
2022/05/08 04:43:39;;;;;;;;;;;;;;;;;;2573879;23;19903;-82
2022/05/08 04:44:44;;;;;;;;;;;;;;;;;;2587419;23;19904;-82
2022/05/08 04:45:47;;;;;;;;;;;;;;;;;;2581850;23;20391;-80
2022/05/08 04:47:06;;;;;;;;;;;;;;;;;;2586740;23;20278;-80
2022/05/08 04:48:14;;;;;;;;;;;;;;;;;;2569816;23;20311;-80
2022/05/08 04:49:17;;;;;;;;;;;;;;;;;;2575372;23;20230;-80
2022/05/08 04:50:20;;;;;;;;;;;;;;;;;;2585827;23;19907;-80
2022/05/08 04:51:30;;;;;;;;;;;;;;;;;;;;;
2022/05/08 04:52:33;;;;;;;;;;;;;;;;;;2587286;23;19903;-80
2022/05/08 04:53:35;;;;;;;;;;;;;;;;;;2586170;23;19904;-80
2022/05/08 04:54:40;;;;;;;;;;;;;;;;;;2586386;23;20337;-79
2022/05/08 04:55:45;;;;;;;;;;;;;;;;;;2582451;23;19930;-80
2022/05/08 04:56:48;;;;;;;;;;;;;;;;;;2569674;23;19904;-79
2022/05/08 04:57:51;;;;;;;;;;;;;;;;;;2574353;23;19907;-81
2022/05/08 04:59:01;;;;;;;;;;;;;;;;;;2586986;23;19911;-80
2022/05/08 05:00:02;;;;;;;;;;;;;;;;;;2587075;23;19903;-79
2022/05/08 05:01:03;;;;;;;;;;;;;;;;;;2569758;23;19903;-79
2022/05/08 05:02:14;;;;;;;;;;;;;;;;;;2569308;23;20220;-80
2022/05/08 05:03:19;;;;;;;;;;;;;;;;;;2586731;23;20337;-80
2022/05/08 05:04:22;;;;;;;;;;;;;;;;;;2584721;23;19939;-79
2022/05/08 05:05:22;;;;;;;;;;;;;;;;;;2586111;23;19907;-83
2022/05/08 05:06:23;;;;;;;;;;;;;;;;;;2581181;23;20261;-81
2022/05/08 05:07:29;;;;;;;;;;;;;;;;;;2585562;22;19910;-79
2022/05/08 05:08:38;;;;;;;;;;;;;;;;;;2586024;23;19907;-79
2022/05/08 05:09:38;;;;;;;;;;;;;;;;;;2585548;23;20341;-80
2022/05/08 05:10:48;;;;;;;;;;;;;;;;;;2581273;23;19907;-81
2022/05/08 05:13:39;;;;;;;;;;;;;;;;;;2542273;23;19927;-81
2022/05/08 05:15:01;;;;;;;;;;;;;;;;;;2532400;23;19991;-81
2022/05/08 05:18:11;;;;;;;;;;;;;;;;;;2550758;23;19912;-81
2022/05/08 05:19:30;;;;;;;;;;;;;;;;;;2571340;23;20082;-81
2022/05/08 05:21:07;;;;;;;;;;;;;;;;;;;;;
2022/05/08 05:23:07;;;;;;;;;;;;;;;;;;;;;
2022/05/08 05:27:19;;;;;;;;;;;;;;;;;;;;;
2022/05/08 05:28:42;;;;;;;;;;;;;;;;;;2499124;23;19970;-82
2022/05/08 05:30:15;;;;;;;;;;;;;;;;;;;;;
2022/05/08 05:33:15;;;;;;;;;;;;;;;;;;;;;
2022/05/08 05:34:45;;;;;;;;;;;;;;;;;;2586067;23;19998;-81
2022/05/08 05:36:08;;;;;;;;;;;;;;;;;;2581849;23;19911;-82
2022/05/08 05:42:23;;;;;;;;;;;;;;;;;;2581553;23;20258;-82
2022/05/08 05:43:47;;;;;;;;;;;;;;;;;;2585958;23;19904;-80
2022/05/08 05:48:42;;;;;;;;;;;;;;;;;;;;;
2022/05/08 05:49:55;;;;;;;;;;;;;;;;;;;;;
2022/05/08 05:52:33;;;;;;;;;;;;;;;;;;2530900;23;20344;-81
2022/05/08 05:53:47;;;;;;;;;;;;;;;;;;;;;
2022/05/08 05:57:12;;;;;;;;;;;;;;;;;;2483337;23;20242;-81
2022/05/08 05:59:14;;;;;;;;;;;;;;;;;;2543404;23;20300;-82
2022/05/08 06:03:32;;;;;;;;;;;;;;;;;;2518844;23;19913;-82
2022/05/08 06:05:02;;;;;;;;;;;;;;;;;;;;;
2022/05/08 06:08:14;;;;;;;;;;;;;;;;;;;;;
2022/05/08 06:09:17;;;;;;;;;;;;;;;;;;2531358;23;19912;-82
2022/05/08 06:13:43;;;;;;;;;;;;;;;;;;2523805;23;19909;-82
2022/05/08 06:16:42;;;;;;;;;;;;;;;;;;;;;
2022/05/08 06:18:36;;;;;;;;;;;;;;;;;;;;;
2022/05/08 06:19:54;;;;;;;;;;;;;;;;;;;;;
2022/05/08 06:21:03;;;;;;;;;;;;;;;;;;2522924;23;20357;-83
2022/05/08 06:22:34;;;;;;;;;;;;;;;;;;;;;
2022/05/08 06:23:55;;;;;;;;;;;;;;;;;;2535399;23;19904;-80
2022/05/08 06:30:19;;;;;;;;;;;;;;;;;;2521729;23;20008;-81
2022/05/08 06:31:34;;;;;;;;;;;;;;;;;;2519818;23;19959;-79
2022/05/08 06:32:54;;;;;;;;;;;;;;;;;;2527091;23;20428;-81
2022/05/08 06:34:36;;;;;;;;;;;;;;;;;;2536334;23;20025;-82
2022/05/08 06:36:12;;;;;;;;;;;;;;;;;;;;;
2022/05/08 06:37:45;;;;;;;;;;;;;;;;;;;;;
2022/05/08 06:39:09;;;;;;;;;;;;;;;;;;2574246;23;19911;-80
2022/05/08 06:42:04;;;;;;;;;;;;;;;;;;;;;
2022/05/08 06:43:53;;;;;;;;;;;;;;;;;;;;;
2022/05/08 06:44:59;;;;;;;;;;;;;;;;;;2574055;23;20355;-81
2022/05/08 06:48:09;;;;;;;;;;;;;;;;;;;;;
2022/05/08 06:51:12;;;;;;;;;;;;;;;;;;;;;
2022/05/08 06:52:40;;;;;;;;;;;;;;;;;;2566989;23;19957;-83
2022/05/08 06:53:46;;;;;;;;;;;;;;;;;;2569955;23;19915;-83
2022/05/08 06:57:03;;;;;;;;;;;;;;;;;;2537008;23;19981;-81
2022/05/08 07:01:47;;;;;;;;;;;;;;;;;;2550273;23;19949;-81
2022/05/08 07:03:11;;;;;;;;;;;;;;;;;;;;;
2022/05/08 07:04:42;;;;;;;;;;;;;;;;;;;;;
2022/05/08 07:06:12;;;;;;;;;;;;;;;;;;2538618;23;20251;-81
2022/05/08 07:07:39;;;;;;;;;;;;;;;;;;2566857;23;20288;-82
2022/05/08 07:09:23;;;;;;;;;;;;;;;;;;2586585;23;19911;-83
2022/05/08 07:15:42;;;;;;;;;;;;;;;;;;;;;
2022/05/08 07:24:09;;;;;;;;;;;;;;;;;;2531061;23;20300;-82
2022/05/08 07:27:27;;;;;;;;;;;;;;;;;;;;;
2022/05/08 07:28:59;;;;;;;;;;;;;;;;;;2548191;23;19904;-82
2022/05/08 07:30:30;;;;;;;;;;;;;;;;;;;;;
2022/05/08 07:32:01;;;;;;;;;;;;;;;;;;2544983;23;19909;-83
2022/05/08 07:38:16;;;;;;;;;;;;;;;;;;;;;
2022/05/08 07:39:21;;;;;;;;;;;;;;;;;;2547990;23;19924;-83
2022/05/08 07:40:48;;;;;;;;;;;;;;;;;;;;;
2022/05/08 07:47:27;;;;;;;;;;;;;;;;;;2582045;23;19914;-84
2022/05/08 07:49:11;;;;;;;;;;;;;;;;;;2557603;23;19907;-82
2022/05/08 07:52:27;;;;;;;;;;;;;;;;;;2561696;23;19908;-82
2022/05/08 07:54:05;;;;;;;;;;;;;;;;;;2519071;23;19912;-83
2022/05/08 07:55:38;;;;;;;;;;;;;;;;;;2484064;23;19928;-82
2022/05/08 07:58:16;;;;;;;;;;;;;;;;;;2573946;23;19903;-82
2022/05/08 07:59:16;;;;;;;;;;;;;;;;;;2586899;23;19903;-82
2022/05/08 08:00:17;;;;;;;;;;;;;;;;;;2586843;23;19910;-81
2022/05/08 08:01:27;;;;;;;;;;;;;;;;;;;;;
2022/05/08 08:02:28;;;;;;;;;;;;;;;;;;2582350;23;20324;-82
2022/05/08 08:03:30;;;;;;;;;;;;;;;;;;2587114;23;19910;-80
2022/05/08 08:04:34;;;;;;;;;;;;;;;;;;2587297;23;20309;-83
2022/05/08 08:05:38;;;;;;;;;;;;;;;;;;2582337;23;20499;-82
2022/05/08 08:06:56;;;;;;;;;;;;;;;;;;2582319;23;19918;-84
2022/05/08 08:07:58;;;;;;;;;;;;;;;;;;2587326;23;19907;-83
2022/05/08 08:08:59;;;;;;;;;;;;;;;;;;2587272;23;19907;-83
2022/05/08 08:10:05;;;;;;;;;;;;;;;;;;2586770;23;20004;-82
2022/05/08 08:11:05;;;;;;;;;;;;;;;;;;2585798;23;19903;-83
2022/05/08 08:12:06;;;;;;;;;;;;;;;;;;2587304;23;19911;-83
2022/05/08 08:13:08;;;;;;;;;;;;;;;;;;2582324;23;20330;-83
2022/05/08 08:14:11;;;;;;;;;;;;;;;;;;2586768;23;20289;-83
2022/05/08 08:15:14;;;;;;;;;;;;;;;;;;2569998;23;19904;-83
2022/05/08 08:16:15;;;;;;;;;;;;;;;;;;2574564;23;19904;-83
2022/05/08 08:17:15;;;;;;;;;;;;;;;;;;2569858;23;20378;-83
2022/05/08 08:18:18;;;;;;;;;;;;;;;;;;2570190;23;19986;-84
2022/05/08 08:19:21;;;;;;;;;;;;;;;;;;2570126;23;19904;-84
2022/05/08 08:20:22;;;;;;;;;;;;;;;;;;2558161;23;19904;-84
2022/05/08 08:21:37;;;;;;;;;;;;;;;;;;2571548;23;20200;-86
2022/05/08 08:22:45;;;;;;;;;;;;;;;;;;2574723;23;20297;-78
2022/05/08 08:23:48;;;;;;;;;;;;;;;;;;2571421;23;20309;-83
2022/05/08 08:24:48;;;;;;;;;;;;;;;;;;2587296;23;19984;-84
2022/05/08 08:25:53;;;;;;;;;;;;;;;;;;2587422;23;19911;-84
2022/05/08 08:26:54;;;;;;;;;;;;;;;;;;2586694;23;20262;-87
2022/05/08 08:28:02;;;;;;;;;;;;;;;;;;2582194;23;19982;-82
2022/05/08 08:29:05;;;;;;;;;;;;;;;;;;2585239;23;19908;-83
2022/05/08 08:30:29;;;;;;;;;;;;;;;;;;2573305;23;19904;-84
2022/05/08 08:31:28;;;;;;;;;;;;;;;;;;2581574;23;19919;-84
2022/05/08 08:32:51;;;;;;;;;;;;;;;;;;2584025;23;20340;-84
2022/05/08 08:33:58;;;;;;;;;;;;;;;;;;2581934;23;19938;-81
2022/05/08 08:35:00;;;;;;;;;;;;;;;;;;2582510;23;20306;-83
2022/05/08 08:36:03;;;;;;;;;;;;;;;;;;2587046;23;20053;-85
2022/05/08 08:37:06;;;;;;;;;;;;;;;;;;2587453;23;19903;-84
2022/05/08 08:38:07;;;;;;;;;;;;;;;;;;2587329;23;19918;-84
2022/05/08 08:39:20;;;;;;;;;;;;;;;;;;;;;
2022/05/08 08:40:20;;;;;;;;;;;;;;;;;;2587379;23;19939;-83
2022/05/08 08:41:26;;;;;;;;;;;;;;;;;;2569791;23;19904;-82
2022/05/08 08:42:38;;;;;;;;;;;;;;;;;;2570858;23;19912;-83
2022/05/08 08:48:05;;;;;;;;;;;;;;;;;;2583419;23;19903;-82
2022/05/08 08:49:13;;;;;;;;;;;;;;;;;;2587655;23;19907;-83
2022/05/08 08:50:23;;;;;;;;;;;;;;;;;;2583268;23;20285;-87
2022/05/08 08:51:28;;;;;;;;;;;;;;;;;;2587325;23;19903;-83
2022/05/08 08:52:38;;;;;;;;;;;;;;;;;;2587317;23;19903;-87
2022/05/08 08:53:40;;;;;;;;;;;;;;;;;;2570161;23;20369;-82
2022/05/08 08:54:50;;;;;;;;;;;;;;;;;;2570338;23;19914;-83
2022/05/08 08:56:06;;;;;;;;;;;;;;;;;;;;;
2022/05/08 08:57:16;;;;;;;;;;;;;;;;;;2587732;23;19903;-84
2022/05/08 08:58:19;;;;;;;;;;;;;;;;;;2573873;23;20374;-84
2022/05/08 08:59:38;;;;;;;;;;;;;;;;;;2570714;23;19907;-85
2022/05/08 09:00:49;;;;;;;;;;;;;;;;;;;;;
2022/05/08 09:01:59;;;;;;;;;;;;;;;;;;2582770;23;20318;-83